sensor_id;sensor_type;location;lat;lon;timestamp;temperature;humidity
27801;DHT22;15181;49.112;11.930;2022-12-20T00:01:08;-0.70;99.90
27801;DHT22;15181;49.112;11.930;2022-12-20T00:03:35;-0.70;99.90
27801;DHT22;15181;49.112;11.930;2022-12-20T00:06:02;-0.70;99.90
27801;DHT22;15181;49.112;11.930;2022-12-20T00:08:31;-0.70;99.90
27801;DHT22;15181;49.112;11.930;2022-12-20T00:11:01;-0.70;99.90
27801;DHT22;15181;49.112;11.930;2022-12-20T00:13:30;-0.70;99.90
27801;DHT22;15181;49.112;11.930;2022-12-20T00:16:05;-0.70;99.90
27801;DHT22;15181;49.112;11.930;2022-12-20T00:18:34;-0.60;99.90
27801;DHT22;15181;49.112;11.930;2022-12-20T00:21:04;-0.60;99.90
27801;DHT22;15181;49.112;11.930;2022-12-20T00:23:34;-0.60;99.90
27801;DHT22;15181;49.112;11.930;2022-12-20T00:26:03;-0.60;99.90
27801;DHT22;15181;49.112;11.930;2022-12-20T00:28:33;-0.50;99.90
27801;DHT22;15181;49.112;11.930;2022-12-20T00:31:02;-0.50;99.90
27801;DHT22;15181;49.112;11.930;2022-12-20T00:33:29;-0.50;99.90
27801;DHT22;15181;49.112;11.930;2022-12-20T00:35:57;-0.50;99.90
27801;DHT22;15181;49.112;11.930;2022-12-20T00:38:25;-0.50;99.90
27801;DHT22;15181;49.112;11.930;2022-12-20T00:41:00;-0.40;99.90
27801;DHT22;15181;49.112;11.930;2022-12-20T00:43:28;-0.40;99.90
27801;DHT22;15181;49.112;11.930;2022-12-20T00:45:55;-0.50;99.90
27801;DHT22;15181;49.112;11.930;2022-12-20T00:48:23;-0.40;99.90
27801;DHT22;15181;49.112;11.930;2022-12-20T00:50:51;-0.50;99.90
27801;DHT22;15181;49.112;11.930;2022-12-20T00:53:18;-0.50;99.90
27801;DHT22;15181;49.112;11.930;2022-12-20T00:55:45;-0.50;99.90
27801;DHT22;15181;49.112;11.930;2022-12-20T00:58:14;-0.50;99.90
27801;DHT22;15181;49.112;11.930;2022-12-20T01:00:43;-0.50;99.90
27801;DHT22;15181;49.112;11.930;2022-12-20T01:03:11;-0.50;99.90
27801;DHT22;15181;49.112;11.930;2022-12-20T01:05:48;-0.50;99.90
27801;DHT22;15181;49.112;11.930;2022-12-20T01:08:15;-0.50;99.90
27801;DHT22;15181;49.112;11.930;2022-12-20T01:10:42;-0.50;99.90
27801;DHT22;15181;49.112;11.930;2022-12-20T01:13:11;-0.50;99.90
27801;DHT22;15181;49.112;11.930;2022-12-20T01:15:39;-0.50;99.90
27801;DHT22;15181;49.112;11.930;2022-12-20T01:18:06;-0.60;99.90
27801;DHT22;15181;49.112;11.930;2022-12-20T01:20:33;-0.60;99.90
27801;DHT22;15181;49.112;11.930;2022-12-20T01:23:01;-0.60;99.90
27801;DHT22;15181;49.112;11.930;2022-12-20T01:25:29;-0.60;99.90
27801;DHT22;15181;49.112;11.930;2022-12-20T01:28:00;-0.60;99.90
27801;DHT22;15181;49.112;11.930;2022-12-20T01:30:27;-0.60;99.90
27801;DHT22;15181;49.112;11.930;2022-12-20T01:32:59;-0.60;99.90
27801;DHT22;15181;49.112;11.930;2022-12-20T01:35:26;-0.60;99.90
27801;DHT22;15181;49.112;11.930;2022-12-20T01:37:53;-0.60;99.90
27801;DHT22;15181;49.112;11.930;2022-12-20T01:40:20;-0.40;99.90
27801;DHT22;15181;49.112;11.930;2022-12-20T01:42:47;-0.60;99.90
27801;DHT22;15181;49.112;11.930;2022-12-20T01:45:22;-0.60;99.90
27801;DHT22;15181;49.112;11.930;2022-12-20T01:47:51;-0.60;99.90
27801;DHT22;15181;49.112;11.930;2022-12-20T01:50:20;-0.60;99.90
27801;DHT22;15181;49.112;11.930;2022-12-20T01:52:48;-0.60;99.90
27801;DHT22;15181;49.112;11.930;2022-12-20T01:55:19;-0.60;99.90
27801;DHT22;15181;49.112;11.930;2022-12-20T01:57:53;-0.50;99.90
27801;DHT22;15181;49.112;11.930;2022-12-20T02:00:23;-0.40;99.90
27801;DHT22;15181;49.112;11.930;2022-12-20T02:02:50;-0.40;99.90
27801;DHT22;15181;49.112;11.930;2022-12-20T02:05:23;-0.50;99.90
27801;DHT22;15181;49.112;11.930;2022-12-20T02:07:52;-0.60;99.90
27801;DHT22;15181;49.112;11.930;2022-12-20T02:10:22;-0.60;99.90
27801;DHT22;15181;49.112;11.930;2022-12-20T02:12:54;-0.60;99.90
27801;DHT22;15181;49.112;11.930;2022-12-20T02:15:36;-0.60;99.90
27801;DHT22;15181;49.112;11.930;2022-12-20T02:18:15;-0.60;99.90
27801;DHT22;15181;49.112;11.930;2022-12-20T02:21:07;-0.60;99.90
27801;DHT22;15181;49.112;11.930;2022-12-20T02:24:18;-0.60;99.90
27801;DHT22;15181;49.112;11.930;2022-12-20T02:27:28;-0.60;99.90
27801;DHT22;15181;49.112;11.930;2022-12-20T02:30:16;-0.60;99.90
27801;DHT22;15181;49.112;11.930;2022-12-20T02:32:49;-0.60;99.90
27801;DHT22;15181;49.112;11.930;2022-12-20T02:35:21;-0.60;99.90
27801;DHT22;15181;49.112;11.930;2022-12-20T02:37:51;-0.60;99.90
27801;DHT22;15181;49.112;11.930;2022-12-20T02:40:21;-0.70;99.90
27801;DHT22;15181;49.112;11.930;2022-12-20T02:42:51;-0.70;99.90
27801;DHT22;15181;49.112;11.930;2022-12-20T02:45:23;-0.60;99.90
27801;DHT22;15181;49.112;11.930;2022-12-20T02:47:53;-0.60;99.90
27801;DHT22;15181;49.112;11.930;2022-12-20T02:50:26;-0.70;99.90
27801;DHT22;15181;49.112;11.930;2022-12-20T02:52:54;-0.70;99.90
27801;DHT22;15181;49.112;11.930;2022-12-20T02:55:40;-0.70;99.90
27801;DHT22;15181;49.112;11.930;2022-12-20T02:58:15;-0.70;99.90
27801;DHT22;15181;49.112;11.930;2022-12-20T03:00:47;-0.70;99.90
27801;DHT22;15181;49.112;11.930;2022-12-20T03:03:16;-0.70;99.90
27801;DHT22;15181;49.112;11.930;2022-12-20T03:05:52;-0.70;99.90
27801;DHT22;15181;49.112;11.930;2022-12-20T03:08:20;-0.70;99.90
27801;DHT22;15181;49.112;11.930;2022-12-20T03:10:50;-0.70;99.90
27801;DHT22;15181;49.112;11.930;2022-12-20T03:13:18;-0.70;99.90
27801;DHT22;15181;49.112;11.930;2022-12-20T03:15:49;-0.70;99.90
27801;DHT22;15181;49.112;11.930;2022-12-20T03:18:17;-0.80;99.90
27801;DHT22;15181;49.112;11.930;2022-12-20T03:20:44;-0.70;99.90
27801;DHT22;15181;49.112;11.930;2022-12-20T03:23:13;-0.70;99.90
27801;DHT22;15181;49.112;11.930;2022-12-20T03:25:40;-0.70;99.90
27801;DHT22;15181;49.112;11.930;2022-12-20T03:28:07;-0.80;99.90
27801;DHT22;15181;49.112;11.930;2022-12-20T03:30:34;-0.70;99.90
27801;DHT22;15181;49.112;11.930;2022-12-20T03:33:03;-0.70;99.90
27801;DHT22;15181;49.112;11.930;2022-12-20T03:35:30;-0.70;99.90
27801;DHT22;15181;49.112;11.930;2022-12-20T03:37:57;-0.70;99.90
27801;DHT22;15181;49.112;11.930;2022-12-20T03:40:24;-0.70;99.90
27801;DHT22;15181;49.112;11.930;2022-12-20T03:42:51;-0.70;99.90
27801;DHT22;15181;49.112;11.930;2022-12-20T03:45:18;-0.70;99.90
27801;DHT22;15181;49.112;11.930;2022-12-20T03:47:46;-0.70;99.90
27801;DHT22;15181;49.112;11.930;2022-12-20T03:50:16;-0.70;99.90
27801;DHT22;15181;49.112;11.930;2022-12-20T03:52:43;-0.80;99.90
27801;DHT22;15181;49.112;11.930;2022-12-20T03:55:10;-0.80;99.90
27801;DHT22;15181;49.112;11.930;2022-12-20T03:57:38;-0.70;99.90
27801;DHT22;15181;49.112;11.930;2022-12-20T04:00:08;-0.70;99.90
27801;DHT22;15181;49.112;11.930;2022-12-20T04:02:37;-0.70;99.90
27801;DHT22;15181;49.112;11.930;2022-12-20T04:05:04;-0.70;99.90
27801;DHT22;15181;49.112;11.930;2022-12-20T04:07:33;-0.70;99.90
27801;DHT22;15181;49.112;11.930;2022-12-20T04:10:00;-0.70;99.90
27801;DHT22;15181;49.112;11.930;2022-12-20T04:12:29;-0.70;99.90
27801;DHT22;15181;49.112;11.930;2022-12-20T04:14:56;-0.70;99.90
27801;DHT22;15181;49.112;11.930;2022-12-20T04:17:25;-0.70;99.90
27801;DHT22;15181;49.112;11.930;2022-12-20T04:19:51;-0.70;99.90
27801;DHT22;15181;49.112;11.930;2022-12-20T04:22:19;-0.70;99.90
27801;DHT22;15181;49.112;11.930;2022-12-20T04:24:48;-0.60;99.90
27801;DHT22;15181;49.112;11.930;2022-12-20T04:27:15;-0.70;99.90
27801;DHT22;15181;49.112;11.930;2022-12-20T04:29:42;-0.70;99.90
27801;DHT22;15181;49.112;11.930;2022-12-20T04:32:09;-0.70;99.90
27801;DHT22;15181;49.112;11.930;2022-12-20T04:34:36;-0.70;99.90
27801;DHT22;15181;49.112;11.930;2022-12-20T04:37:04;-0.70;99.90
27801;DHT22;15181;49.112;11.930;2022-12-20T04:39:32;-0.70;99.90
27801;DHT22;15181;49.112;11.930;2022-12-20T04:42:00;-0.70;99.90
27801;DHT22;15181;49.112;11.930;2022-12-20T04:44:27;-0.70;99.90
27801;DHT22;15181;49.112;11.930;2022-12-20T04:46:54;-0.70;99.90
27801;DHT22;15181;49.112;11.930;2022-12-20T04:49:22;-0.70;99.90
27801;DHT22;15181;49.112;11.930;2022-12-20T04:51:49;-0.60;99.90
27801;DHT22;15181;49.112;11.930;2022-12-20T04:54:16;-0.60;99.90
27801;DHT22;15181;49.112;11.930;2022-12-20T04:56:42;-0.60;99.90
27801;DHT22;15181;49.112;11.930;2022-12-20T04:59:11;-0.50;99.90
27801;DHT22;15181;49.112;11.930;2022-12-20T05:01:39;-0.70;99.90
27801;DHT22;15181;49.112;11.930;2022-12-20T05:04:06;-0.60;99.90
27801;DHT22;15181;49.112;11.930;2022-12-20T05:06:33;-0.60;99.90
27801;DHT22;15181;49.112;11.930;2022-12-20T05:09:01;-0.70;99.90
27801;DHT22;15181;49.112;11.930;2022-12-20T05:11:29;-0.70;99.90
27801;DHT22;15181;49.112;11.930;2022-12-20T05:13:56;-0.60;99.90
27801;DHT22;15181;49.112;11.930;2022-12-20T05:16:25;-0.60;99.90
27801;DHT22;15181;49.112;11.930;2022-12-20T05:18:53;-0.60;99.90
27801;DHT22;15181;49.112;11.930;2022-12-20T05:21:21;-0.60;99.90
27801;DHT22;15181;49.112;11.930;2022-12-20T05:24:07;-0.60;99.90
27801;DHT22;15181;49.112;11.930;2022-12-20T05:26:52;-0.60;99.90
27801;DHT22;15181;49.112;11.930;2022-12-20T05:29:21;-0.60;99.90
27801;DHT22;15181;49.112;11.930;2022-12-20T05:31:50;-0.60;99.90
27801;DHT22;15181;49.112;11.930;2022-12-20T05:34:17;-0.50;99.90
27801;DHT22;15181;49.112;11.930;2022-12-20T05:36:45;-0.60;99.90
27801;DHT22;15181;49.112;11.930;2022-12-20T05:39:12;-0.50;99.90
27801;DHT22;15181;49.112;11.930;2022-12-20T05:41:40;-0.50;99.90
27801;DHT22;15181;49.112;11.930;2022-12-20T05:44:07;-0.50;99.90
27801;DHT22;15181;49.112;11.930;2022-12-20T05:46:35;-0.50;99.90
27801;DHT22;15181;49.112;11.930;2022-12-20T05:49:04;-0.50;99.90
27801;DHT22;15181;49.112;11.930;2022-12-20T05:51:34;-0.30;99.90
27801;DHT22;15181;49.112;11.930;2022-12-20T05:54:01;-0.50;99.90
27801;DHT22;15181;49.112;11.930;2022-12-20T05:56:29;-0.50;99.90
27801;DHT22;15181;49.112;11.930;2022-12-20T05:58:56;-0.50;99.90
27801;DHT22;15181;49.112;11.930;2022-12-20T06:01:28;-0.50;99.90
27801;DHT22;15181;49.112;11.930;2022-12-20T06:03:55;-0.50;99.90
27801;DHT22;15181;49.112;11.930;2022-12-20T06:06:24;-0.50;99.90
27801;DHT22;15181;49.112;11.930;2022-12-20T06:08:51;-0.50;99.90
27801;DHT22;15181;49.112;11.930;2022-12-20T06:11:18;-0.50;99.90
27801;DHT22;15181;49.112;11.930;2022-12-20T06:13:45;-0.50;99.90
27801;DHT22;15181;49.112;11.930;2022-12-20T06:16:12;-0.50;99.90
27801;DHT22;15181;49.112;11.930;2022-12-20T06:18:39;-0.50;99.90
27801;DHT22;15181;49.112;11.930;2022-12-20T06:21:06;-0.40;99.90
27801;DHT22;15181;49.112;11.930;2022-12-20T06:23:34;-0.50;99.90
27801;DHT22;15181;49.112;11.930;2022-12-20T06:26:01;-0.40;99.90
27801;DHT22;15181;49.112;11.930;2022-12-20T06:28:29;-0.40;99.90
27801;DHT22;15181;49.112;11.930;2022-12-20T06:30:57;-0.40;99.90
27801;DHT22;15181;49.112;11.930;2022-12-20T06:33:26;-0.40;99.90
27801;DHT22;15181;49.112;11.930;2022-12-20T06:35:53;-0.40;99.90
27801;DHT22;15181;49.112;11.930;2022-12-20T06:38:21;-0.30;99.90
27801;DHT22;15181;49.112;11.930;2022-12-20T06:40:50;-0.30;99.90
27801;DHT22;15181;49.112;11.930;2022-12-20T06:43:17;-0.40;99.90
27801;DHT22;15181;49.112;11.930;2022-12-20T06:45:44;-0.40;99.90
27801;DHT22;15181;49.112;11.930;2022-12-20T06:48:11;-0.40;99.90
27801;DHT22;15181;49.112;11.930;2022-12-20T06:50:39;-0.50;99.90
27801;DHT22;15181;49.112;11.930;2022-12-20T06:53:06;-0.40;99.90
27801;DHT22;15181;49.112;11.930;2022-12-20T06:55:33;-0.40;99.90
27801;DHT22;15181;49.112;11.930;2022-12-20T06:58:04;-0.40;99.90
27801;DHT22;15181;49.112;11.930;2022-12-20T07:00:32;-0.40;99.90
27801;DHT22;15181;49.112;11.930;2022-12-20T07:02:59;-0.40;99.90
27801;DHT22;15181;49.112;11.930;2022-12-20T07:05:26;-0.40;99.90
27801;DHT22;15181;49.112;11.930;2022-12-20T07:07:53;-0.40;99.90
27801;DHT22;15181;49.112;11.930;2022-12-20T07:10:20;-0.40;99.90
27801;DHT22;15181;49.112;11.930;2022-12-20T07:12:48;-0.40;99.90
27801;DHT22;15181;49.112;11.930;2022-12-20T07:15:17;-0.40;99.90
27801;DHT22;15181;49.112;11.930;2022-12-20T07:17:44;-0.40;99.90
27801;DHT22;15181;49.112;11.930;2022-12-20T07:20:11;-0.40;99.90
27801;DHT22;15181;49.112;11.930;2022-12-20T07:22:38;-0.40;99.90
27801;DHT22;15181;49.112;11.930;2022-12-20T07:25:05;-0.40;99.90
27801;DHT22;15181;49.112;11.930;2022-12-20T07:27:33;-0.40;99.90
27801;DHT22;15181;49.112;11.930;2022-12-20T07:30:00;-0.30;99.90
27801;DHT22;15181;49.112;11.930;2022-12-20T07:32:29;-0.30;99.90
27801;DHT22;15181;49.112;11.930;2022-12-20T07:34:56;-0.30;99.90
27801;DHT22;15181;49.112;11.930;2022-12-20T07:37:23;-0.30;99.90
27801;DHT22;15181;49.112;11.930;2022-12-20T07:39:51;-0.30;99.90
27801;DHT22;15181;49.112;11.930;2022-12-20T07:42:18;-0.10;99.90
27801;DHT22;15181;49.112;11.930;2022-12-20T07:44:46;-0.30;99.90
27801;DHT22;15181;49.112;11.930;2022-12-20T07:47:13;-0.20;99.90
27801;DHT22;15181;49.112;11.930;2022-12-20T07:49:41;-0.20;99.90
27801;DHT22;15181;49.112;11.930;2022-12-20T07:52:10;-0.20;99.90
27801;DHT22;15181;49.112;11.930;2022-12-20T07:54:42;-0.10;99.90
27801;DHT22;15181;49.112;11.930;2022-12-20T07:57:16;-0.10;99.90
27801;DHT22;15181;49.112;11.930;2022-12-20T07:59:48;-0.10;99.90
27801;DHT22;15181;49.112;11.930;2022-12-20T08:02:19;0.00;99.90
27801;DHT22;15181;49.112;11.930;2022-12-20T08:04:49;0.00;99.90
27801;DHT22;15181;49.112;11.930;2022-12-20T08:07:16;0.00;99.90
27801;DHT22;15181;49.112;11.930;2022-12-20T08:09:44;0.00;99.90
27801;DHT22;15181;49.112;11.930;2022-12-20T08:12:15;0.00;99.90
27801;DHT22;15181;49.112;11.930;2022-12-20T08:14:43;0.10;99.90
27801;DHT22;15181;49.112;11.930;2022-12-20T08:17:10;0.00;99.90
27801;DHT22;15181;49.112;11.930;2022-12-20T08:19:37;0.00;99.90
27801;DHT22;15181;49.112;11.930;2022-12-20T08:22:06;0.10;99.90
27801;DHT22;15181;49.112;11.930;2022-12-20T08:24:33;0.10;99.90
27801;DHT22;15181;49.112;11.930;2022-12-20T08:27:03;0.20;99.90
27801;DHT22;15181;49.112;11.930;2022-12-20T08:29:30;0.10;99.90
27801;DHT22;15181;49.112;11.930;2022-12-20T08:31:57;0.20;99.90
27801;DHT22;15181;49.112;11.930;2022-12-20T08:34:25;0.30;99.90
27801;DHT22;15181;49.112;11.930;2022-12-20T08:36:52;0.30;99.90
27801;DHT22;15181;49.112;11.930;2022-12-20T08:39:21;0.30;99.90
27801;DHT22;15181;49.112;11.930;2022-12-20T08:41:48;0.40;99.90
27801;DHT22;15181;49.112;11.930;2022-12-20T08:44:15;0.40;99.90
27801;DHT22;15181;49.112;11.930;2022-12-20T08:46:44;0.40;99.90
27801;DHT22;15181;49.112;11.930;2022-12-20T08:49:14;0.40;99.90
27801;DHT22;15181;49.112;11.930;2022-12-20T08:51:44;0.40;99.90
27801;DHT22;15181;49.112;11.930;2022-12-20T08:54:11;0.40;99.90
27801;DHT22;15181;49.112;11.930;2022-12-20T08:56:40;0.50;99.90
27801;DHT22;15181;49.112;11.930;2022-12-20T08:59:07;0.50;99.90
27801;DHT22;15181;49.112;11.930;2022-12-20T09:01:34;0.50;99.90
27801;DHT22;15181;49.112;11.930;2022-12-20T09:04:04;0.50;99.90
27801;DHT22;15181;49.112;11.930;2022-12-20T09:06:34;0.50;99.90
27801;DHT22;15181;49.112;11.930;2022-12-20T09:09:02;0.50;99.90
27801;DHT22;15181;49.112;11.930;2022-12-20T09:11:29;0.60;99.90
27801;DHT22;15181;49.112;11.930;2022-12-20T09:13:58;0.60;99.90
27801;DHT22;15181;49.112;11.930;2022-12-20T09:16:29;0.60;99.90
27801;DHT22;15181;49.112;11.930;2022-12-20T09:18:59;0.80;99.90
27801;DHT22;15181;49.112;11.930;2022-12-20T09:21:27;0.60;99.90
27801;DHT22;15181;49.112;11.930;2022-12-20T09:23:55;0.60;99.90
27801;DHT22;15181;49.112;11.930;2022-12-20T09:26:23;0.60;99.90
27801;DHT22;15181;49.112;11.930;2022-12-20T09:28:50;0.60;99.90
27801;DHT22;15181;49.112;11.930;2022-12-20T09:31:22;0.70;99.90
27801;DHT22;15181;49.112;11.930;2022-12-20T09:33:52;0.80;99.90
27801;DHT22;15181;49.112;11.930;2022-12-20T09:36:21;0.80;99.90
27801;DHT22;15181;49.112;11.930;2022-12-20T09:38:49;0.90;99.90
27801;DHT22;15181;49.112;11.930;2022-12-20T09:41:24;1.00;99.90
27801;DHT22;15181;49.112;11.930;2022-12-20T09:43:53;1.00;99.90
27801;DHT22;15181;49.112;11.930;2022-12-20T09:46:24;1.10;99.90
27801;DHT22;15181;49.112;11.930;2022-12-20T09:48:52;1.10;99.90
27801;DHT22;15181;49.112;11.930;2022-12-20T09:51:42;1.10;99.90
27801;DHT22;15181;49.112;11.930;2022-12-20T09:54:18;1.10;99.90
27801;DHT22;15181;49.112;11.930;2022-12-20T09:56:57;1.20;99.90
27801;DHT22;15181;49.112;11.930;2022-12-20T09:59:25;1.20;99.90
27801;DHT22;15181;49.112;11.930;2022-12-20T10:01:54;1.20;99.90
27801;DHT22;15181;49.112;11.930;2022-12-20T10:04:23;1.20;99.90
27801;DHT22;15181;49.112;11.930;2022-12-20T10:06:59;1.20;99.90
27801;DHT22;15181;49.112;11.930;2022-12-20T10:09:44;1.20;99.90
27801;DHT22;15181;49.112;11.930;2022-12-20T10:12:20;1.20;99.90
27801;DHT22;15181;49.112;11.930;2022-12-20T10:15:04;1.30;99.90
27801;DHT22;15181;49.112;11.930;2022-12-20T10:17:49;1.30;99.90
27801;DHT22;15181;49.112;11.930;2022-12-20T10:20:33;1.30;99.90
27801;DHT22;15181;49.112;11.930;2022-12-20T10:23:08;1.40;99.90
27801;DHT22;15181;49.112;11.930;2022-12-20T10:25:39;1.40;99.90
27801;DHT22;15181;49.112;11.930;2022-12-20T10:28:11;1.40;99.90
27801;DHT22;15181;49.112;11.930;2022-12-20T10:30:40;1.40;99.90
27801;DHT22;15181;49.112;11.930;2022-12-20T10:33:15;1.40;99.90
27801;DHT22;15181;49.112;11.930;2022-12-20T10:35:44;1.50;99.90
27801;DHT22;15181;49.112;11.930;2022-12-20T10:38:12;1.60;99.90
27801;DHT22;15181;49.112;11.930;2022-12-20T10:40:43;1.60;99.90
27801;DHT22;15181;49.112;11.930;2022-12-20T10:43:16;1.70;99.90
27801;DHT22;15181;49.112;11.930;2022-12-20T10:45:54;1.70;99.90
27801;DHT22;15181;49.112;11.930;2022-12-20T10:48:37;1.80;99.90
27801;DHT22;15181;49.112;11.930;2022-12-20T10:51:13;1.80;99.90
27801;DHT22;15181;49.112;11.930;2022-12-20T10:53:52;1.90;99.90
27801;DHT22;15181;49.112;11.930;2022-12-20T10:56:22;2.00;99.90
27801;DHT22;15181;49.112;11.930;2022-12-20T10:58:54;2.00;99.90
27801;DHT22;15181;49.112;11.930;2022-12-20T11:01:24;2.00;99.90
27801;DHT22;15181;49.112;11.930;2022-12-20T11:03:58;2.20;99.90
27801;DHT22;15181;49.112;11.930;2022-12-20T11:06:29;2.00;99.90
27801;DHT22;15181;49.112;11.930;2022-12-20T11:09:23;2.00;99.90
27801;DHT22;15181;49.112;11.930;2022-12-20T11:11:57;2.10;99.90
27801;DHT22;15181;49.112;11.930;2022-12-20T11:14:25;2.10;99.90
27801;DHT22;15181;49.112;11.930;2022-12-20T11:16:53;2.20;99.90
27801;DHT22;15181;49.112;11.930;2022-12-20T11:19:39;2.20;99.90
27801;DHT22;15181;49.112;11.930;2022-12-20T11:22:21;2.30;99.90
27801;DHT22;15181;49.112;11.930;2022-12-20T11:25:00;2.30;99.90
27801;DHT22;15181;49.112;11.930;2022-12-20T11:27:31;2.30;99.90
27801;DHT22;15181;49.112;11.930;2022-12-20T11:30:07;2.30;99.90
27801;DHT22;15181;49.112;11.930;2022-12-20T11:32:54;2.30;99.90
27801;DHT22;15181;49.112;11.930;2022-12-20T11:35:32;2.30;99.90
27801;DHT22;15181;49.112;11.930;2022-12-20T11:38:11;2.40;99.90
27801;DHT22;15181;49.112;11.930;2022-12-20T11:40:48;2.40;99.90
27801;DHT22;15181;49.112;11.930;2022-12-20T11:43:40;2.40;99.90
27801;DHT22;15181;49.112;11.930;2022-12-20T11:46:23;2.30;99.90
27801;DHT22;15181;49.112;11.930;2022-12-20T11:49:15;2.30;99.90
27801;DHT22;15181;49.112;11.930;2022-12-20T11:51:50;2.30;99.90
27801;DHT22;15181;49.112;11.930;2022-12-20T11:54:24;2.20;99.90
27801;DHT22;15181;49.112;11.930;2022-12-20T11:57:05;2.20;99.90
27801;DHT22;15181;49.112;11.930;2022-12-20T11:59:41;2.20;99.90
27801;DHT22;15181;49.112;11.930;2022-12-20T12:02:13;2.20;99.90
27801;DHT22;15181;49.112;11.930;2022-12-20T12:04:46;2.20;99.90
27801;DHT22;15181;49.112;11.930;2022-12-20T12:07:20;2.20;99.90
27801;DHT22;15181;49.112;11.930;2022-12-20T12:09:56;2.20;99.90
27801;DHT22;15181;49.112;11.930;2022-12-20T12:12:26;2.20;99.90
27801;DHT22;15181;49.112;11.930;2022-12-20T12:15:00;2.20;99.90
27801;DHT22;15181;49.112;11.930;2022-12-20T12:17:37;2.10;99.90
27801;DHT22;15181;49.112;11.930;2022-12-20T12:20:24;2.20;99.90
27801;DHT22;15181;49.112;11.930;2022-12-20T12:22:59;2.20;99.90
27801;DHT22;15181;49.112;11.930;2022-12-20T12:25:27;2.20;99.90
27801;DHT22;15181;49.112;11.930;2022-12-20T12:27:54;2.20;99.90
27801;DHT22;15181;49.112;11.930;2022-12-20T12:30:22;2.30;99.90
27801;DHT22;15181;49.112;11.930;2022-12-20T12:32:52;2.30;99.90
27801;DHT22;15181;49.112;11.930;2022-12-20T12:35:46;2.30;99.90
27801;DHT22;15181;49.112;11.930;2022-12-20T12:38:35;2.50;99.90
27801;DHT22;15181;49.112;11.930;2022-12-20T12:44:36;2.40;99.90
27801;DHT22;15181;49.112;11.930;2022-12-20T12:47:27;2.40;99.90
27801;DHT22;15181;49.112;11.930;2022-12-20T12:49:56;2.40;99.90
27801;DHT22;15181;49.112;11.930;2022-12-20T12:52:34;2.40;99.90
27801;DHT22;15181;49.112;11.930;2022-12-20T12:58:32;2.40;99.90
27801;DHT22;15181;49.112;11.930;2022-12-20T13:01:01;2.30;99.90
27801;DHT22;15181;49.112;11.930;2022-12-20T13:03:41;2.30;99.90
27801;DHT22;15181;49.112;11.930;2022-12-20T13:06:50;2.30;99.90
27801;DHT22;15181;49.112;11.930;2022-12-20T13:09:34;2.30;99.90
27801;DHT22;15181;49.112;11.930;2022-12-20T13:15:47;2.40;99.90
27801;DHT22;15181;49.112;11.930;2022-12-20T13:18:25;2.40;99.90
27801;DHT22;15181;49.112;11.930;2022-12-20T13:21:34;2.40;99.90
27801;DHT22;15181;49.112;11.930;2022-12-20T13:27:13;2.40;99.90
27801;DHT22;15181;49.112;11.930;2022-12-20T13:32:56;2.40;99.90
27801;DHT22;15181;49.112;11.930;2022-12-20T13:35:53;2.40;99.90
27801;DHT22;15181;49.112;11.930;2022-12-20T13:41:42;2.40;99.90
27801;DHT22;15181;49.112;11.930;2022-12-20T13:44:41;2.40;99.90
27801;DHT22;15181;49.112;11.930;2022-12-20T13:47:31;2.40;99.90
27801;DHT22;15181;49.112;11.930;2022-12-20T13:50:26;2.40;99.90
27801;DHT22;15181;49.112;11.930;2022-12-20T13:52:53;2.40;99.90
27801;DHT22;15181;49.112;11.930;2022-12-20T13:55:34;2.40;99.90
27801;DHT22;15181;49.112;11.930;2022-12-20T13:58:20;2.40;99.90
27801;DHT22;15181;49.112;11.930;2022-12-20T14:01:04;2.30;99.90
27801;DHT22;15181;49.112;11.930;2022-12-20T14:03:33;2.30;99.90
27801;DHT22;15181;49.112;11.930;2022-12-20T14:06:10;2.30;99.90
27801;DHT22;15181;49.112;11.930;2022-12-20T14:08:42;2.20;99.90
27801;DHT22;15181;49.112;11.930;2022-12-20T14:11:14;2.20;99.90
27801;DHT22;15181;49.112;11.930;2022-12-20T14:13:50;2.20;99.90
27801;DHT22;15181;49.112;11.930;2022-12-20T14:16:18;2.20;99.90
27801;DHT22;15181;49.112;11.930;2022-12-20T14:18:49;2.20;99.90
27801;DHT22;15181;49.112;11.930;2022-12-20T14:21:18;2.10;99.90
27801;DHT22;15181;49.112;11.930;2022-12-20T14:23:47;2.10;99.90
27801;DHT22;15181;49.112;11.930;2022-12-20T14:26:20;2.10;99.90
27801;DHT22;15181;49.112;11.930;2022-12-20T14:28:53;2.10;99.90
27801;DHT22;15181;49.112;11.930;2022-12-20T14:31:24;2.10;99.90
27801;DHT22;15181;49.112;11.930;2022-12-20T14:34:01;2.00;99.90
27801;DHT22;15181;49.112;11.930;2022-12-20T14:36:30;2.00;99.90
27801;DHT22;15181;49.112;11.930;2022-12-20T14:38:58;2.00;99.90
27801;DHT22;15181;49.112;11.930;2022-12-20T14:41:30;2.00;99.90
27801;DHT22;15181;49.112;11.930;2022-12-20T14:44:03;2.00;99.90
27801;DHT22;15181;49.112;11.930;2022-12-20T14:46:33;2.00;99.90
27801;DHT22;15181;49.112;11.930;2022-12-20T14:49:20;2.00;99.90
27801;DHT22;15181;49.112;11.930;2022-12-20T14:51:50;2.00;99.90
27801;DHT22;15181;49.112;11.930;2022-12-20T14:54:19;2.00;99.90
27801;DHT22;15181;49.112;11.930;2022-12-20T14:56:50;2.00;99.90
27801;DHT22;15181;49.112;11.930;2022-12-20T14:59:23;2.00;99.90
27801;DHT22;15181;49.112;11.930;2022-12-20T15:01:52;1.90;99.90
27801;DHT22;15181;49.112;11.930;2022-12-20T15:04:24;1.90;99.90
27801;DHT22;15181;49.112;11.930;2022-12-20T15:06:58;1.90;99.90
27801;DHT22;15181;49.112;11.930;2022-12-20T15:09:25;1.90;99.90
27801;DHT22;15181;49.112;11.930;2022-12-20T15:11:52;1.90;99.90
27801;DHT22;15181;49.112;11.930;2022-12-20T15:14:41;1.80;99.90
27801;DHT22;15181;49.112;11.930;2022-12-20T15:17:10;1.80;99.90
27801;DHT22;15181;49.112;11.930;2022-12-20T15:19:40;1.80;99.90
27801;DHT22;15181;49.112;11.930;2022-12-20T15:22:13;1.80;99.90
27801;DHT22;15181;49.112;11.930;2022-12-20T15:24:40;1.70;99.90
27801;DHT22;15181;49.112;11.930;2022-12-20T15:27:11;1.70;99.90
27801;DHT22;15181;49.112;11.930;2022-12-20T15:29:39;1.70;99.90
27801;DHT22;15181;49.112;11.930;2022-12-20T15:32:14;1.70;99.90
27801;DHT22;15181;49.112;11.930;2022-12-20T15:34:41;1.70;99.90
27801;DHT22;15181;49.112;11.930;2022-12-20T15:37:13;1.70;99.90
27801;DHT22;15181;49.112;11.930;2022-12-20T15:39:41;1.70;99.90
27801;DHT22;15181;49.112;11.930;2022-12-20T15:42:13;1.70;99.90
27801;DHT22;15181;49.112;11.930;2022-12-20T15:44:42;1.70;99.90
27801;DHT22;15181;49.112;11.930;2022-12-20T15:47:11;1.60;99.90
27801;DHT22;15181;49.112;11.930;2022-12-20T15:49:40;1.60;99.90
27801;DHT22;15181;49.112;11.930;2022-12-20T15:52:17;1.60;99.90
27801;DHT22;15181;49.112;11.930;2022-12-20T15:54:45;1.60;99.90
27801;DHT22;15181;49.112;11.930;2022-12-20T15:57:13;1.60;99.90
27801;DHT22;15181;49.112;11.930;2022-12-20T15:59:43;1.60;99.90
27801;DHT22;15181;49.112;11.930;2022-12-20T16:02:19;1.60;99.90
27801;DHT22;15181;49.112;11.930;2022-12-20T16:04:47;1.60;99.90
27801;DHT22;15181;49.112;11.930;2022-12-20T16:07:19;1.60;99.90
27801;DHT22;15181;49.112;11.930;2022-12-20T16:09:47;1.60;99.90